createdAt,value
2022-11-07T00:01:49.649Z,93801.00
2022-11-07T00:16:51.519Z,93807.84
2022-11-07T00:31:53.012Z,93800.75
2022-11-07T00:46:54.518Z,93822.78
2022-11-07T01:01:56.108Z,93800.53
2022-11-07T01:16:57.776Z,93786.31
2022-11-07T01:31:59.247Z,93780.00
2022-11-07T01:47:01.266Z,93773.66
2022-11-07T02:02:03.731Z,93797.63
2022-11-07T02:17:05.362Z,93789.97
2022-11-07T02:32:08.314Z,93791.00
2022-11-07T02:47:13.023Z,93788.03
2022-11-07T03:02:14.565Z,93792.16
2022-11-07T03:17:16.094Z,93802.09
2022-11-07T03:32:17.593Z,93806.13
2022-11-07T03:47:19.086Z,93828.56
2022-11-07T04:02:20.690Z,93841.56
2022-11-07T04:17:22.401Z,93852.94
2022-11-07T04:32:24.513Z,93861.44
2022-11-07T04:47:26.033Z,93858.13
2022-11-07T05:02:28.104Z,93871.22
2022-11-07T05:17:29.713Z,93880.81
2022-11-07T05:32:31.178Z,93905.25
2022-11-07T05:47:32.658Z,93912.41
2022-11-07T06:02:34.262Z,93925.84
2022-11-07T06:17:35.944Z,93946.59
2022-11-07T06:32:37.437Z,93952.47
2022-11-07T06:47:39.066Z,93981.34
2022-11-07T07:18:02.344Z,93990.81
2022-11-07T07:33:03.854Z,93991.88
2022-11-07T07:48:05.563Z,93992.94
2022-11-07T08:03:11.352Z,93995.88
2022-11-07T08:18:12.864Z,94003.91
2022-11-07T08:33:14.709Z,93997.56
2022-11-07T08:48:17.123Z,93992.09
2022-11-07T09:18:40.118Z,94010.06
2022-11-07T09:33:41.665Z,93998.59
2022-11-07T09:48:50.514Z,93980.16
2022-11-07T10:04:23.575Z,93985.47
2022-11-07T10:19:16.635Z,93970.00
2022-11-07T10:34:21.873Z,93958.41
2022-11-07T10:49:30.521Z,93929.94
2022-11-07T11:04:32.998Z,93928.50
2022-11-07T11:19:40.868Z,93910.03
2022-11-07T11:34:57.415Z,93899.09
2022-11-07T11:49:58.899Z,93890.66
2022-11-07T12:05:15.307Z,93883.44
2022-11-07T12:20:18.148Z,93865.75
2022-11-07T12:35:28.728Z,93862.25
2022-11-07T12:50:45.613Z,93850.31
2022-11-07T13:05:54.882Z,93856.63
2022-11-07T13:21:00.494Z,93855.88
2022-11-07T13:36:13.074Z,93870.22
2022-11-07T13:51:28.981Z,93866.25
2022-11-07T14:06:31.869Z,93867.66
2022-11-07T14:21:34.862Z,93872.06
2022-11-07T14:36:36.321Z,93880.53
2022-11-07T14:51:37.909Z,93877.41
2022-11-07T15:06:43.785Z,93885.34
2022-11-07T15:22:00.979Z,93904.72
2022-11-07T15:37:08.515Z,93901.81
2022-11-07T15:52:10.161Z,93907.81
2022-11-07T16:07:18.813Z,93915.28
2022-11-07T16:22:20.324Z,93939.53
2022-11-07T16:37:21.801Z,93960.22
2022-11-07T16:52:25.314Z,93970.47
2022-11-07T17:07:26.803Z,93980.19
2022-11-07T17:22:28.370Z,93969.50
2022-11-07T17:37:29.848Z,93957.03
2022-11-07T17:52:31.427Z,93975.63
2022-11-07T18:07:33.967Z,93980.19
2022-11-07T18:22:37.213Z,93975.56
2022-11-07T18:37:41.630Z,93958.00
2022-11-07T18:52:43.139Z,93962.00
2022-11-07T19:07:45.036Z,93982.94
2022-11-07T19:22:46.781Z,94008.59
2022-11-07T19:37:48.284Z,94026.19
2022-11-07T19:52:49.954Z,94024.22
2022-11-07T20:07:55.300Z,94009.63
2022-11-07T20:23:00.344Z,94019.53
2022-11-07T20:38:01.833Z,94034.53
2022-11-07T20:53:03.587Z,94040.72
2022-11-07T21:08:05.249Z,94039.19
2022-11-07T21:23:07.390Z,94039.88
2022-11-07T21:38:08.844Z,94039.53
2022-11-07T21:53:10.448Z,94044.75
2022-11-07T22:16:09.013Z,94058.22
2022-11-07T22:31:12.441Z,94063.69
2022-11-07T22:46:15.089Z,94066.22
2022-11-07T23:01:26.933Z,94063.59
2022-11-07T23:16:33.161Z,94058.97
2022-11-07T23:31:34.860Z,94057.34
2022-11-07T23:46:55.651Z,94064.63
